Broward Mall, Florida
Current Conditions -  °F | °C
As of 10:53 PM on Thursday 18 Dec 2014 (Local Time) from KFLL Reporting Station
Clear Clear  
Wind Chill: 63°   Ceiling: Unl
Heat Index: 63°   Visibility: 10mi
Dew Point: 56°   Wind: 3mph
Humidity: 78%   Direction: 340°NNW
Pressure: 30.11"   Gusts: NA
Location:  26.1172°N, 80.2562°W
Report Text: KFLL 190353Z 34003KT 10SM CLR 17/13 A3011 RMK AO2 SLP195 T01720133
Loading
Personal Weather Stations






























Interactive Weather Map New forecast layout! Learn more

10-Day Weather Forecast

Advertisements
Track Severe Weather on mobile